ADDS METAR Data

Data at: 0744 UTC 24 Oct 2017

METAR for:KIWI (Wiscasset Arpt, ME, US)
Text:KIWI 240653Z AUTO 16004KT 10SM BKN031 OVC042 16/16 A3015 RMK AO2 RAB27E39 SLP211 P0000 T01610156
Temperature: 16.1°C ( 61°F)
Dewpoint: 15.6°C ( 60°F) [RH = 97%]
Pressure (altimeter):30.15 inches Hg (1021.1 mb) [Sea level pressure: 1021.1 mb]
Winds:from the SSE (160 degrees) at 5 MPH (4 knots; 2.1 m/s)
Visibility:10 or more sm (16+ km)
Ceiling:3100 feet AGL
Clouds: broken clouds at 3100 feet AGL, overcast cloud deck at 4200 feet AGL
QC Flag:automated observation with no human augmentation